createdAt,value
2019-03-16T00:01:41.928Z,10.80
2019-03-16T00:04:10.372Z,10.90
2019-03-16T00:06:38.770Z,10.90
2019-03-16T00:09:07.591Z,10.80
2019-03-16T00:11:36.041Z,10.80
2019-03-16T00:14:04.500Z,10.90
2019-03-16T00:16:32.897Z,10.90
2019-03-16T00:19:01.345Z,10.90
2019-03-16T00:21:29.756Z,10.90
2019-03-16T00:23:58.208Z,10.90
2019-03-16T00:26:26.687Z,10.80
2019-03-16T00:28:55.147Z,10.80
2019-03-16T00:31:23.557Z,10.80
2019-03-16T00:33:52.024Z,10.90
2019-03-16T00:36:20.420Z,10.90
2019-03-16T00:38:48.885Z,10.90
2019-03-16T00:41:17.298Z,10.90
2019-03-16T00:43:45.733Z,10.90
2019-03-16T00:46:14.155Z,10.90
2019-03-16T00:48:42.593Z,10.90
2019-03-16T00:51:11.035Z,10.80
2019-03-16T00:53:39.438Z,10.90
2019-03-16T00:56:07.890Z,10.90
2019-03-16T00:58:36.343Z,10.90
2019-03-16T01:01:04.731Z,10.90
2019-03-16T01:03:33.132Z,11.00
2019-03-16T01:06:01.590Z,10.90
2019-03-16T01:08:29.992Z,11.00
2019-03-16T01:10:58.443Z,11.00
2019-03-16T01:13:26.868Z,11.00
2019-03-16T01:15:55.338Z,11.00
2019-03-16T01:18:23.771Z,11.00
2019-03-16T01:20:52.231Z,11.00
2019-03-16T01:23:20.619Z,10.90
2019-03-16T01:25:49.082Z,10.90
2019-03-16T01:28:17.483Z,10.90
2019-03-16T01:30:45.940Z,11.00
2019-03-16T01:33:14.349Z,10.90
2019-03-16T01:35:42.799Z,10.90
2019-03-16T01:38:11.205Z,10.80
2019-03-16T01:40:39.746Z,10.80
2019-03-16T01:43:08.144Z,10.80
2019-03-16T01:45:36.537Z,10.80
2019-03-16T01:48:04.994Z,10.80
2019-03-16T01:50:33.395Z,10.70
2019-03-16T01:53:01.839Z,10.80
2019-03-16T01:55:30.364Z,10.80
2019-03-16T01:57:58.872Z,10.80
2019-03-16T02:00:27.277Z,10.80
2019-03-16T02:02:56.031Z,10.80
2019-03-16T02:05:24.524Z,10.70
2019-03-16T02:07:52.980Z,10.70
2019-03-16T02:10:21.385Z,10.70
2019-03-16T02:12:49.847Z,10.70
2019-03-16T02:15:18.245Z,10.70
2019-03-16T02:17:46.707Z,10.70
2019-03-16T02:20:15.105Z,10.70
2019-03-16T02:22:43.568Z,10.60
2019-03-16T02:25:11.943Z,10.60
2019-03-16T02:27:40.405Z,10.60
2019-03-16T02:30:11.187Z,10.60
2019-03-16T02:32:39.698Z,10.60
2019-03-16T02:35:08.770Z,10.60
2019-03-16T02:37:37.244Z,10.50
2019-03-16T02:40:08.146Z,10.60
2019-03-16T02:42:36.581Z,10.60
2019-03-16T02:45:09.458Z,10.60
2019-03-16T02:47:37.081Z,10.60
2019-03-16T02:50:07.757Z,10.50
2019-03-16T02:52:36.163Z,10.50
2019-03-16T02:55:07.067Z,10.60
2019-03-16T02:57:35.467Z,10.60
2019-03-16T03:00:06.111Z,10.60
2019-03-16T03:02:34.502Z,10.60
2019-03-16T03:05:03.304Z,10.60
2019-03-16T03:07:31.714Z,10.60
2019-03-16T03:10:00.417Z,10.60
2019-03-16T03:12:28.949Z,10.70
2019-03-16T03:14:57.405Z,10.70
2019-03-16T03:17:25.820Z,10.70
2019-03-16T03:19:54.297Z,10.70
2019-03-16T03:22:22.690Z,10.70
2019-03-16T03:24:51.153Z,10.70
2019-03-16T03:27:19.580Z,10.70
2019-03-16T03:29:48.057Z,10.80
2019-03-16T03:32:16.525Z,10.70
2019-03-16T03:34:44.945Z,10.70
2019-03-16T03:37:13.459Z,10.70
2019-03-16T03:39:41.855Z,10.70
2019-03-16T03:42:10.315Z,10.70
2019-03-16T03:44:38.753Z,10.70
2019-03-16T03:47:07.273Z,10.70
2019-03-16T03:49:35.683Z,10.70
2019-03-16T03:52:04.155Z,10.70
2019-03-16T03:54:32.624Z,10.70
2019-03-16T03:57:01.075Z,10.70
2019-03-16T03:59:29.582Z,10.80
2019-03-16T04:01:58.114Z,10.80
2019-03-16T04:04:26.596Z,10.80
2019-03-16T04:06:55.190Z,10.80
2019-03-16T04:09:23.646Z,10.80
2019-03-16T04:11:52.097Z,10.90
2019-03-16T04:14:20.525Z,10.90
2019-03-16T04:16:49.034Z,10.90
2019-03-16T04:19:17.436Z,10.90
2019-03-16T04:21:45.890Z,10.90
2019-03-16T04:24:14.298Z,10.90
2019-03-16T04:26:42.695Z,10.90
2019-03-16T04:29:11.162Z,11.00
2019-03-16T04:31:39.571Z,10.90
2019-03-16T04:34:09.386Z,10.90
2019-03-16T04:36:37.811Z,10.90
2019-03-16T04:39:07.015Z,11.00
2019-03-16T04:41:35.419Z,10.90
2019-03-16T04:44:03.889Z,10.90
2019-03-16T04:46:32.308Z,10.90
2019-03-16T04:49:00.774Z,10.80
2019-03-16T04:51:29.270Z,10.70
2019-03-16T04:53:57.708Z,10.70
2019-03-16T04:56:26.120Z,10.70
2019-03-16T04:58:54.591Z,10.70
2019-03-16T05:01:22.992Z,10.60
2019-03-16T05:03:51.442Z,10.60
2019-03-16T05:06:19.846Z,10.60
2019-03-16T05:08:48.314Z,10.60
2019-03-16T05:11:16.761Z,10.60
2019-03-16T05:13:45.202Z,10.60
2019-03-16T05:16:13.672Z,10.60
2019-03-16T05:18:42.138Z,10.50
2019-03-16T05:21:10.528Z,10.60
2019-03-16T05:23:39.000Z,10.60
2019-03-16T05:26:07.406Z,10.50
2019-03-16T05:28:35.801Z,10.60
2019-03-16T05:31:04.237Z,10.60
2019-03-16T05:33:32.646Z,10.50
2019-03-16T05:36:01.160Z,10.60
2019-03-16T05:38:29.621Z,10.60
2019-03-16T05:40:58.076Z,10.60
2019-03-16T05:43:26.484Z,10.60
2019-03-16T05:45:54.912Z,10.60
2019-03-16T05:48:23.325Z,10.60
2019-03-16T05:50:51.778Z,10.60
2019-03-16T05:53:20.175Z,10.50
2019-03-16T05:55:48.628Z,10.60
2019-03-16T05:58:17.032Z,10.60
2019-03-16T06:00:45.538Z,10.60
2019-03-16T06:03:13.953Z,10.60
2019-03-16T06:05:42.407Z,10.60
2019-03-16T06:08:10.813Z,10.70
2019-03-16T06:10:39.274Z,10.70
2019-03-16T06:13:07.671Z,10.70
2019-03-16T06:15:36.085Z,10.80
2019-03-16T06:18:04.549Z,10.80
2019-03-16T06:20:32.942Z,10.80
2019-03-16T06:23:01.543Z,10.80
2019-03-16T06:25:29.960Z,10.80
2019-03-16T06:27:58.487Z,10.80
2019-03-16T06:30:26.890Z,10.90
2019-03-16T06:32:55.341Z,10.80
2019-03-16T06:35:26.491Z,10.90
2019-03-16T06:37:53.907Z,10.90
2019-03-16T06:40:22.315Z,10.80
2019-03-16T06:42:50.734Z,10.80
2019-03-16T06:45:19.143Z,10.80
2019-03-16T06:47:47.598Z,10.80
2019-03-16T06:50:16.163Z,10.80
2019-03-16T06:52:44.617Z,10.90
2019-03-16T06:55:13.860Z,10.80
2019-03-16T06:57:42.272Z,10.90
2019-03-16T07:00:19.645Z,10.80
2019-03-16T07:02:48.119Z,10.80
2019-03-16T07:05:20.539Z,10.90
2019-03-16T07:07:46.792Z,10.80
2019-03-16T07:10:15.246Z,10.80
2019-03-16T07:12:43.665Z,10.80
2019-03-16T07:15:15.730Z,10.80
2019-03-16T07:17:44.206Z,10.80
2019-03-16T07:20:14.239Z,10.80
2019-03-16T07:22:42.656Z,10.80
2019-03-16T07:25:11.170Z,10.80
2019-03-16T07:27:39.575Z,10.80
2019-03-16T07:30:12.692Z,10.80
2019-03-16T07:32:41.098Z,10.80
2019-03-16T07:35:09.840Z,10.80
2019-03-16T07:37:38.310Z,10.80
2019-03-16T07:40:09.847Z,10.80
2019-03-16T07:42:38.245Z,10.80
2019-03-16T07:45:09.220Z,10.80
2019-03-16T07:47:37.703Z,10.90
2019-03-16T07:50:08.586Z,10.80
2019-03-16T07:52:36.997Z,10.80
2019-03-16T07:55:06.613Z,10.80
2019-03-16T07:57:40.145Z,10.80
2019-03-16T08:00:08.066Z,10.80
2019-03-16T08:02:36.469Z,10.80
2019-03-16T08:05:17.349Z,10.80
2019-03-16T08:07:35.989Z,10.80
2019-03-16T08:10:06.930Z,10.80
2019-03-16T08:12:35.393Z,10.80
2019-03-16T08:15:05.638Z,10.80
2019-03-16T08:17:34.107Z,10.80
2019-03-16T08:20:02.572Z,10.90
2019-03-16T08:22:31.034Z,10.90
2019-03-16T08:24:59.487Z,10.90
2019-03-16T08:27:27.997Z,10.90
2019-03-16T08:29:56.403Z,10.90
2019-03-16T08:32:25.495Z,10.90
2019-03-16T08:34:54.212Z,10.80
2019-03-16T08:37:22.703Z,10.90
2019-03-16T08:39:51.106Z,10.90
2019-03-16T08:42:19.553Z,10.80
2019-03-16T08:44:47.966Z,10.70
2019-03-16T08:47:16.421Z,10.70
2019-03-16T08:49:44.830Z,10.70
2019-03-16T08:52:13.299Z,10.60
2019-03-16T08:54:41.705Z,10.60
2019-03-16T08:57:10.217Z,10.60
2019-03-16T08:59:38.724Z,10.60
2019-03-16T09:02:07.123Z,10.60
2019-03-16T09:04:35.581Z,10.60
2019-03-16T09:07:05.774Z,10.70
2019-03-16T09:09:34.213Z,10.80
2019-03-16T09:12:02.614Z,10.90
2019-03-16T09:14:31.063Z,11.00
2019-03-16T09:16:59.448Z,11.00
2019-03-16T09:19:27.902Z,11.10
2019-03-16T09:21:56.310Z,11.10
2019-03-16T09:24:24.775Z,11.10
2019-03-16T09:26:53.184Z,11.20
2019-03-16T09:29:21.653Z,11.10
2019-03-16T09:31:50.042Z,11.20
2019-03-16T09:34:18.497Z,11.20
2019-03-16T09:36:46.913Z,11.10
2019-03-16T09:39:15.360Z,11.10
2019-03-16T09:41:43.766Z,11.10
2019-03-16T09:44:12.219Z,11.00
2019-03-16T09:46:40.749Z,10.90
2019-03-16T09:49:09.177Z,10.90
2019-03-16T09:51:37.623Z,10.90
2019-03-16T09:54:06.013Z,10.80
2019-03-16T09:56:34.461Z,10.80
2019-03-16T09:59:02.969Z,10.80
2019-03-16T10:01:31.456Z,10.80
2019-03-16T10:03:59.844Z,10.80
2019-03-16T10:06:28.314Z,10.80
2019-03-16T10:08:56.724Z,11.00
2019-03-16T10:11:25.169Z,11.10
2019-03-16T10:13:53.628Z,11.10
2019-03-16T10:16:22.098Z,11.10
2019-03-16T10:18:50.503Z,11.20
2019-03-16T10:21:19.026Z,11.40
2019-03-16T10:23:47.572Z,11.50
2019-03-16T10:26:16.015Z,11.60
2019-03-16T10:28:44.484Z,11.60
2019-03-16T10:31:12.874Z,11.70
2019-03-16T10:33:41.339Z,11.70
2019-03-16T10:36:09.754Z,11.70
2019-03-16T10:38:38.589Z,11.70
2019-03-16T10:41:07.094Z,11.70
2019-03-16T10:43:35.543Z,11.80
2019-03-16T10:46:03.942Z,11.80
2019-03-16T10:48:32.401Z,11.90
2019-03-16T10:51:00.801Z,11.90
2019-03-16T10:53:29.271Z,11.90
2019-03-16T10:55:57.691Z,11.90
2019-03-16T10:58:26.220Z,11.90
2019-03-16T11:00:54.638Z,11.90
2019-03-16T11:03:23.043Z,12.00
2019-03-16T11:05:51.501Z,12.10
2019-03-16T11:08:19.954Z,12.20
2019-03-16T11:10:48.415Z,12.30
2019-03-16T11:13:16.813Z,12.40
2019-03-16T11:15:45.270Z,12.40
2019-03-16T11:18:13.741Z,12.30
2019-03-16T11:20:42.181Z,12.30
2019-03-16T11:23:10.688Z,12.30
2019-03-16T11:25:39.194Z,12.30
2019-03-16T11:28:07.592Z,12.30
2019-03-16T11:30:36.047Z,12.30
2019-03-16T11:33:04.513Z,12.40
2019-03-16T11:35:32.973Z,12.40
2019-03-16T11:38:01.382Z,12.40
2019-03-16T11:40:29.837Z,12.40
2019-03-16T11:42:58.250Z,12.50
2019-03-16T11:45:26.715Z,12.50
2019-03-16T11:47:55.110Z,12.50
2019-03-16T11:50:23.641Z,12.50
2019-03-16T11:52:52.043Z,12.50
2019-03-16T11:55:20.539Z,12.60
2019-03-16T11:57:48.933Z,12.60
2019-03-16T12:00:17.485Z,12.80
2019-03-16T12:02:45.880Z,13.00
2019-03-16T12:05:14.405Z,13.20
2019-03-16T12:07:42.805Z,13.10
2019-03-16T12:10:13.314Z,13.00
2019-03-16T12:12:44.389Z,13.10
2019-03-16T12:15:13.973Z,13.20
2019-03-16T12:17:42.439Z,13.20
2019-03-16T12:20:18.593Z,13.30
2019-03-16T12:22:47.285Z,13.50
2019-03-16T12:25:15.768Z,13.50
2019-03-16T12:27:44.174Z,13.40
2019-03-16T12:30:14.171Z,13.30
2019-03-16T12:32:42.572Z,13.20
2019-03-16T12:35:11.405Z,13.20
2019-03-16T12:37:40.244Z,13.30
2019-03-16T12:40:13.757Z,13.40
2019-03-16T12:42:42.375Z,13.40
2019-03-16T12:45:13.882Z,13.40
2019-03-16T12:47:42.327Z,13.50
2019-03-16T12:50:10.859Z,13.40
2019-03-16T12:52:39.467Z,13.40
2019-03-16T12:55:12.616Z,13.30
2019-03-16T12:57:41.145Z,13.30
2019-03-16T13:00:19.774Z,13.30
2019-03-16T13:02:48.414Z,13.40
2019-03-16T13:05:16.873Z,13.50
2019-03-16T13:07:45.354Z,13.50
2019-03-16T13:10:20.323Z,13.70
2019-03-16T13:12:48.931Z,13.70
2019-03-16T13:15:17.400Z,13.70
2019-03-16T13:17:45.926Z,13.60
2019-03-16T13:20:15.476Z,13.70
2019-03-16T13:22:44.002Z,13.70
2019-03-16T13:25:12.506Z,13.60
2019-03-16T13:27:41.024Z,13.60
2019-03-16T13:30:21.743Z,13.70
2019-03-16T13:32:50.249Z,13.70
2019-03-16T13:35:18.636Z,13.70
2019-03-16T13:37:47.169Z,13.50
2019-03-16T13:40:19.754Z,13.40
2019-03-16T13:42:48.225Z,13.30
2019-03-16T13:45:16.745Z,13.30
2019-03-16T13:47:45.224Z,13.30
2019-03-16T13:50:18.803Z,13.40
2019-03-16T13:52:47.480Z,13.40
2019-03-16T13:55:15.956Z,13.30
2019-03-16T13:57:44.389Z,13.20
2019-03-16T14:00:20.697Z,13.20
2019-03-16T14:02:49.421Z,13.40
2019-03-16T14:05:17.898Z,13.60
2019-03-16T14:07:46.311Z,13.80
2019-03-16T14:10:17.860Z,13.80
2019-03-16T14:12:46.339Z,13.80
2019-03-16T14:15:14.806Z,13.80
2019-03-16T14:17:43.533Z,13.70
2019-03-16T14:20:14.626Z,13.70
2019-03-16T14:22:43.187Z,13.80
2019-03-16T14:25:11.817Z,13.80
2019-03-16T14:27:40.213Z,13.80
2019-03-16T14:30:29.425Z,13.80
2019-03-16T14:32:46.931Z,13.70
2019-03-16T14:35:15.404Z,13.70
2019-03-16T14:37:43.934Z,13.70
2019-03-16T14:40:13.793Z,13.70
2019-03-16T14:42:42.375Z,13.70
2019-03-16T14:45:16.003Z,13.80
2019-03-16T14:47:44.406Z,13.90
2019-03-16T14:50:16.512Z,13.90
2019-03-16T14:52:45.149Z,13.80
2019-03-16T14:55:13.834Z,13.60
2019-03-16T14:57:42.296Z,13.50
2019-03-16T15:00:18.303Z,13.70
2019-03-16T15:02:46.982Z,14.10
2019-03-16T15:05:15.810Z,14.40
2019-03-16T15:07:44.347Z,14.60
2019-03-16T15:10:16.923Z,14.70
2019-03-16T15:12:45.426Z,14.90
2019-03-16T15:15:21.118Z,14.80
2019-03-16T15:17:49.593Z,14.70
2019-03-16T15:20:18.127Z,14.70
2019-03-16T15:22:46.539Z,14.90
2019-03-16T15:25:15.194Z,14.70
2019-03-16T15:27:43.740Z,14.40
2019-03-16T15:30:14.644Z,14.20
2019-03-16T15:32:43.156Z,14.10
2019-03-16T15:35:11.549Z,13.90
2019-03-16T15:37:40.038Z,13.90
2019-03-16T15:40:11.149Z,13.80
2019-03-16T15:42:39.617Z,13.80
2019-03-16T15:45:11.091Z,13.70
2019-03-16T15:47:39.539Z,13.70
2019-03-16T15:50:09.068Z,13.60
2019-03-16T15:52:37.880Z,13.60
2019-03-16T15:55:07.059Z,13.60
2019-03-16T15:57:35.517Z,13.60
2019-03-16T16:00:07.159Z,13.60
2019-03-16T16:02:35.680Z,13.70
2019-03-16T16:05:05.737Z,13.90
2019-03-16T16:07:35.325Z,13.90
2019-03-16T16:10:06.809Z,14.00
2019-03-16T16:12:35.218Z,14.00
2019-03-16T16:15:05.920Z,14.00
2019-03-16T16:17:34.363Z,14.10
2019-03-16T16:20:03.091Z,14.00
2019-03-16T16:22:31.561Z,14.20
2019-03-16T16:25:00.035Z,14.30
2019-03-16T16:27:28.429Z,14.50
2019-03-16T16:29:56.887Z,14.40
2019-03-16T16:32:25.302Z,14.30
2019-03-16T16:34:53.757Z,14.30
2019-03-16T16:37:22.212Z,14.20
2019-03-16T16:39:50.710Z,14.10
2019-03-16T16:42:19.182Z,13.90
2019-03-16T16:44:48.103Z,13.90
2019-03-16T16:47:16.517Z,13.80
2019-03-16T16:49:44.979Z,13.70
2019-03-16T16:52:13.381Z,13.70
2019-03-16T16:54:41.839Z,13.60
2019-03-16T16:57:10.240Z,13.50
2019-03-16T16:59:38.708Z,13.50
2019-03-16T17:02:07.193Z,13.40
2019-03-16T17:04:35.717Z,13.40
2019-03-16T17:07:04.139Z,13.40
2019-03-16T17:09:32.653Z,13.30
2019-03-16T17:12:01.128Z,13.20
2019-03-16T17:14:29.588Z,13.10
2019-03-16T17:16:58.688Z,13.00
2019-03-16T17:19:27.322Z,13.00
2019-03-16T17:21:55.717Z,12.90
2019-03-16T17:24:24.202Z,12.80
2019-03-16T17:26:52.704Z,12.70
2019-03-16T17:29:21.126Z,12.70
2019-03-16T17:31:49.596Z,12.70
2019-03-16T17:34:17.991Z,12.70
2019-03-16T17:36:46.450Z,12.70
2019-03-16T17:39:14.884Z,12.60
2019-03-16T17:41:43.338Z,12.50
2019-03-16T17:44:11.792Z,12.40
2019-03-16T17:46:40.241Z,12.30
2019-03-16T17:49:08.641Z,12.30
2019-03-16T17:51:37.099Z,12.20
2019-03-16T17:54:05.617Z,12.20
2019-03-16T17:56:34.089Z,12.20
2019-03-16T17:59:02.498Z,12.10
2019-03-16T18:01:30.973Z,12.10
2019-03-16T18:03:59.374Z,12.10
2019-03-16T18:06:27.788Z,12.00
2019-03-16T18:08:56.257Z,12.00
2019-03-16T18:11:24.666Z,11.90
2019-03-16T18:13:53.150Z,11.90
2019-03-16T18:16:21.547Z,11.80
2019-03-16T18:18:50.009Z,11.70
2019-03-16T18:21:18.411Z,11.60
2019-03-16T18:23:46.949Z,11.50
2019-03-16T18:26:15.350Z,11.50
2019-03-16T18:28:43.818Z,11.40
2019-03-16T18:31:12.213Z,11.30
2019-03-16T18:33:40.673Z,11.30
2019-03-16T18:36:11.350Z,11.20
2019-03-16T18:38:39.339Z,11.10
2019-03-16T18:41:07.745Z,11.00
2019-03-16T18:43:36.191Z,10.90
2019-03-16T18:46:04.667Z,10.80
2019-03-16T18:48:33.066Z,10.70
2019-03-16T18:51:01.538Z,10.50
2019-03-16T18:53:29.993Z,10.40
2019-03-16T18:55:58.390Z,10.10
2019-03-16T18:58:36.554Z,9.80
2019-03-16T19:00:57.034Z,9.70
2019-03-16T19:03:25.413Z,9.60
2019-03-16T19:05:53.883Z,9.30
2019-03-16T19:08:22.294Z,9.20
2019-03-16T19:10:53.050Z,9.10
2019-03-16T19:13:20.850Z,9.00
2019-03-16T19:15:49.310Z,8.90
2019-03-16T19:18:17.709Z,8.90
2019-03-16T19:20:46.150Z,8.70
2019-03-16T19:23:14.681Z,8.70
2019-03-16T19:25:43.129Z,8.50
2019-03-16T19:28:11.540Z,8.50
2019-03-16T19:30:40.913Z,8.40
2019-03-16T19:33:09.308Z,8.40
2019-03-16T19:35:37.795Z,8.30
2019-03-16T19:38:06.192Z,8.20
2019-03-16T19:40:34.726Z,8.10
2019-03-16T19:43:03.134Z,8.10
2019-03-16T19:45:31.583Z,7.90
2019-03-16T19:48:02.871Z,7.90
2019-03-16T19:50:30.181Z,7.70
2019-03-16T19:52:58.616Z,7.60
2019-03-16T19:55:27.060Z,7.50
2019-03-16T19:57:55.542Z,7.30
2019-03-16T20:00:23.940Z,7.30
2019-03-16T20:02:52.407Z,7.20
2019-03-16T20:05:20.789Z,7.10
2019-03-16T20:07:49.239Z,7.10
2019-03-16T20:10:18.897Z,7.10
2019-03-16T20:12:47.534Z,7.10
2019-03-16T20:15:16.578Z,7.10
2019-03-16T20:17:45.013Z,6.90
2019-03-16T20:20:14.560Z,6.90
2019-03-16T20:22:43.005Z,7.00
2019-03-16T20:25:12.149Z,6.90
2019-03-16T20:27:40.622Z,6.70
2019-03-16T20:30:25.831Z,6.50
2019-03-16T20:32:48.514Z,6.40
2019-03-16T20:35:17.066Z,6.30
2019-03-16T20:37:45.532Z,6.40
2019-03-16T20:40:15.031Z,6.40
2019-03-16T20:42:43.790Z,6.30
2019-03-16T20:45:12.527Z,6.20
2019-03-16T20:47:41.120Z,6.10
2019-03-16T20:50:14.247Z,6.10
2019-03-16T20:52:42.660Z,6.20
2019-03-16T20:55:11.395Z,6.20
2019-03-16T20:57:39.790Z,6.10
2019-03-16T21:00:18.635Z,6.00
2019-03-16T21:02:47.198Z,5.90
2019-03-16T21:05:15.909Z,5.80
2019-03-16T21:07:44.312Z,5.80
2019-03-16T21:10:13.689Z,5.80
2019-03-16T21:12:42.093Z,5.70
2019-03-16T21:15:12.670Z,5.70
2019-03-16T21:17:41.080Z,5.60
2019-03-16T21:20:12.361Z,5.60
2019-03-16T21:22:40.750Z,5.50
2019-03-16T21:25:11.042Z,5.40
2019-03-16T21:27:39.437Z,5.40
2019-03-16T21:30:13.939Z,5.30
2019-03-16T21:32:42.367Z,5.20
2019-03-16T21:35:10.987Z,5.10
2019-03-16T21:37:39.382Z,5.00
2019-03-16T21:40:10.282Z,4.90
2019-03-16T21:42:38.685Z,4.80
2019-03-16T21:45:12.088Z,4.80
2019-03-16T21:47:40.616Z,5.00
2019-03-16T21:50:12.078Z,4.90
2019-03-16T21:52:40.607Z,4.80
2019-03-16T21:55:10.345Z,4.60
2019-03-16T21:57:38.846Z,4.50
2019-03-16T22:00:15.332Z,4.40
2019-03-16T22:02:43.893Z,4.40
2019-03-16T22:05:12.431Z,4.40
2019-03-16T22:07:40.964Z,4.50
2019-03-16T22:10:14.092Z,4.60
2019-03-16T22:12:42.664Z,4.60
2019-03-16T22:15:14.895Z,4.50
2019-03-16T22:17:43.417Z,4.50
2019-03-16T22:20:18.858Z,4.50
2019-03-16T22:22:47.314Z,4.40
2019-03-16T22:25:15.858Z,4.40
2019-03-16T22:27:44.414Z,4.40
2019-03-16T22:30:15.072Z,4.40
2019-03-16T22:32:43.523Z,4.50
2019-03-16T22:35:12.040Z,4.40
2019-03-16T22:37:40.502Z,4.40
2019-03-16T22:40:11.142Z,4.20
2019-03-16T22:42:39.617Z,4.20
2019-03-16T22:45:13.865Z,4.20
2019-03-16T22:47:42.254Z,4.20
2019-03-16T22:50:18.792Z,4.10
2019-03-16T22:52:47.265Z,4.10
2019-03-16T22:55:16.485Z,4.00
2019-03-16T22:57:45.121Z,3.90
2019-03-16T23:00:26.330Z,3.80
2019-03-16T23:02:54.717Z,3.80
2019-03-16T23:05:23.442Z,3.70
2019-03-16T23:07:51.835Z,3.90
2019-03-16T23:10:20.290Z,3.90
2019-03-16T23:12:48.712Z,3.80
2019-03-16T23:15:17.180Z,3.70
2019-03-16T23:17:45.644Z,3.60
2019-03-16T23:20:14.226Z,3.50
2019-03-16T23:22:42.623Z,3.40
2019-03-16T23:25:11.439Z,3.50
2019-03-16T23:27:39.856Z,3.50
2019-03-16T23:30:09.648Z,3.50
2019-03-16T23:32:38.045Z,3.40
2019-03-16T23:35:07.931Z,3.40
2019-03-16T23:37:36.413Z,3.50
2019-03-16T23:40:14.398Z,3.50
2019-03-16T23:42:42.893Z,3.50
2019-03-16T23:45:12.794Z,3.40
2019-03-16T23:47:41.329Z,3.40
2019-03-16T23:50:11.071Z,3.30
2019-03-16T23:52:39.531Z,3.40
2019-03-16T23:55:09.067Z,3.30
2019-03-16T23:57:37.525Z,3.30
